Map

Track Data

SID SEASON NUMBER BASIN SUBBASIN NAME ISO_TIME NATURE LAT LON WMO_WIND WMO_PRES WMO_AGENCY TRACK_TYPE DIST2LAND LANDFALL IFLAG USA_AGENCY USA_ATCF_ID USA_LAT USA_LON USA_RECORD USA_STATUS USA_WIND USA_PRES USA_SSHS USA_R34_NE USA_R34_SE USA_R34_SW USA_R34_NW USA_R50_NE USA_R50_SE USA_R50_SW USA_R50_NW USA_R64_NE USA_R64_SE USA_R64_SW USA_R64_NW USA_POCI USA_ROCI USA_RMW USA_EYE TOKYO_LAT TOKYO_LON TOKYO_GRADE TOKYO_WIND TOKYO_PRES TOKYO_R50_DIR TOKYO_R50_LONG TOKYO_R50_SHORT TOKYO_R30_DIR TOKYO_R30_LONG TOKYO_R30_SHORT TOKYO_LAND CMA_LAT CMA_LON CMA_CAT CMA_WIND CMA_PRES HKO_LAT HKO_LON HKO_CAT HKO_WIND HKO_PRES NEWDELHI_LAT NEWDELHI_LON NEWDELHI_GRADE NEWDELHI_WIND NEWDELHI_PRES NEWDELHI_CI NEWDELHI_DP NEWDELHI_POCI REUNION_LAT REUNION_LON REUNION_TYPE REUNION_WIND REUNION_PRES REUNION_TNUM REUNION_CI REUNION_RMW REUNION_R34_NE REUNION_R34_SE REUNION_R34_SW REUNION_R34_NW REUNION_R50_NE REUNION_R50_SE REUNION_R50_SW REUNION_R50_NW REUNION_R64_NE REUNION_R64_SE REUNION_R64_SW REUNION_R64_NW BOM_LAT BOM_LON BOM_TYPE BOM_WIND BOM_PRES BOM_TNUM BOM_CI BOM_RMW BOM_R34_NE BOM_R34_SE BOM_R34_SW BOM_R34_NW BOM_R50_NE BOM_R50_SE BOM_R50_SW BOM_R50_NW BOM_R64_NE BOM_R64_SE BOM_R64_SW BOM_R64_NW BOM_ROCI BOM_POCI BOM_EYE BOM_POS_METHOD BOM_PRES_METHOD NADI_LAT NADI_LON NADI_CAT NADI_WIND NADI_PRES WELLINGTON_LAT WELLINGTON_LON WELLINGTON_WIND WELLINGTON_PRES DS824_LAT DS824_LON DS824_STAGE DS824_WIND DS824_PRES TD9636_LAT TD9636_LON TD9636_STAGE TD9636_WIND TD9636_PRES TD9635_LAT TD9635_LON TD9635_WIND TD9635_PRES TD9635_ROCI NEUMANN_LAT NEUMANN_LON NEUMANN_CLASS NEUMANN_WIND NEUMANN_PRES MLC_LAT MLC_LON MLC_CLASS MLC_WIND MLC_PRES USA_GUST BOM_GUST BOM_GUST_PER REUNION_GUST REUNION_GUST_PER USA_SEAHGT USA_SEARAD_NE USA_SEARAD_SE USA_SEARAD_SW USA_SEARAD_NW STORM_SPEED STORM_DIR
1976045S17150 1976 17 SP EA BETH 1976-02-13 17:00:00 NR -16.5000 149.900 25 1003 bom main 416 416 ______O_______ -1 -16.5000 149.900 20 25 1003 1.50000 45 45 8 57
1976045S17150 1976 17 SP EA BETH 1976-02-13 18:00:00 TS -16.4264 150.023 main 429 429 ______P__O__O_ -1 -16.4027 149.996 20 25 1002 -16.4000 150.000 TC 25 1003 -16.5000 150.100 TC 25 1003 7 45
1976045S17150 1976 17 SP EA BETH 1976-02-13 21:00:00 TS -16.1706 150.249 main 456 456 ______P__P__P_ -1 -16.1346 150.234 20 25 1002 -16.1775 150.153 TC 25 1002 -16.2176 150.368 TC 25 1002 6 36
1976045S17150 1976 17 SP EA BETH 1976-02-13 23:00:00 TS -16.0338 150.325 25 1002 bom main 474 474 ______O__P__P_ -1 -16.0000 150.300 20 25 1002 1.50000 -16.0514 150.202 TC 25 1002 -16.0613 150.479 TC 25 1002 45 45 4 22
1976045S17150 1976 17 SP EA BETH 1976-02-14 00:00:00 TS -15.9842 150.331 main 474 468 ______P__O__O_ -1 -15.9526 150.293 20 25 1001 -16.0000 150.200 TC 25 1002 -16.0000 150.500 TC 25 1002 3 323
1976045S17150 1976 17 SP EA BETH 1976-02-14 03:00:00 TS -15.8968 150.212 main 468 458 ______P__P__P_ -1 -15.8879 150.146 20 25 1000 -15.9050 150.080 TC 27 1000 -15.8975 150.410 TC 27 1000 3 290
1976045S17150 1976 17 SP EA BETH 1976-02-14 05:00:00 TS -15.8936 150.077 25 999 bom main 458 448 ______O__P__P_ -1 -15.9000 150.000 20 25 999 2.00000 -15.8917 149.957 TC 29 999 -15.8890 150.274 TC 29 999 45 45 4 267
1976045S17150 1976 17 SP EA BETH 1976-02-14 06:00:00 TS -15.9072 150.006 main 448 424 ______P__O__O_ -1 -15.9215 149.918 20 25 999 -15.9000 149.900 TC 30 999 -15.9000 150.200 TC 30 999 4 247
1976045S17150 1976 17 SP EA BETH 1976-02-14 09:00:00 TS -16.0085 149.793 main 424 410 ______P__P__P_ -1 -16.0329 149.676 20 25 1000 -16.0000 149.755 TC 30 1000 -15.9925 149.948 TC 27 1000 4 239
1976045S17150 1976 17 SP EA BETH 1976-02-14 11:00:00 TS -16.0820 149.709 25 1001 bom main 410 410 ______O__P__P_ -1 -16.1000 149.600 20 25 1001 2.00000 -16.0759 149.702 TC 30 1000 -16.0702 149.824 TC 25 1000 45 45 3 218
1976045S17150 1976 17 SP EA BETH 1976-02-14 12:00:00 TS -16.1064 149.710 main 410 410 ______P__O__O_ -1 -16.1193 149.629 20 25 1000 -16.1000 149.700 TC 30 1001 -16.1000 149.800 TC 25 1001 3 103
1976045S17150 1976 17 SP EA BETH 1976-02-14 15:00:00 TS -16.1199 149.879 main 430 430 ______P__P__P_ -1 -16.1346 149.847 20 25 1000 -16.0875 149.827 TC 30 1000 -16.1376 149.962 TC 27 1000 4 86
1976045S17150 1976 17 SP EA BETH 1976-02-14 17:00:00 TS -16.0861 150.026 25 1000 bom main 440 440 ______O__P__P_ -1 -16.1000 150.000 20 25 1000 2.00000 -16.0360 149.948 TC 30 1000 -16.1224 150.129 TC 29 1000 45 45 4 72
1976045S17150 1976 17 SP EA BETH 1976-02-14 18:00:00 TS -16.0557 150.081 main 450 450 ______P__O__O_ -1 -16.0671 150.042 20 25 999 -16.0000 150.000 TC 30 1000 -16.1000 150.200 TC 30 1000 3 39
1976045S17150 1976 17 SP EA BETH 1976-02-14 21:00:00 TS -15.9179 150.166 main 468 468 ______P__P__P_ -1 -15.9163 150.107 20 25 999 -15.8650 150.095 TC 30 999 -15.9725 150.295 TC 30 999 3 19
1976045S17150 1976 17 SP EA BETH 1976-02-14 23:00:00 TS -15.8044 150.173 25 999 bom main 472 472 ______O__P__P_ -1 -15.8000 150.100 20 25 999 2.00000 -15.7552 150.111 TC 30 999 -15.8579 150.308 TC 30 999 45 45 3 0
1976045S17150 1976 17 SP EA BETH 1976-02-15 00:00:00 TS -15.7500 150.163 main 476 466 ______P__O__O_ -1 -15.7500 150.089 20 25 998 -15.7000 150.100 TC 30 999 -15.8000 150.300 TC 30 999 3 336
1976045S17150 1976 17 SP EA BETH 1976-02-15 03:00:00 TS -15.5975 150.075 main 471 462 ______P__P__P_ -1 -15.6000 149.999 20 28 997 -15.5425 149.987 TC 32 998 -15.6500 150.238 TC 32 998 4 324
1976045S17150 1976 17 SP EA BETH 1976-02-15 05:00:00 TS -15.4981 149.973 30 997 bom main 467 457 ______O__P__P_ -1 -15.5000 149.900 20 30 997 2.50000 -15.4443 149.866 TC 34 997 -15.5500 150.153 TC 34 997 45 45 4 314
1976045S17150 1976 17 SP EA BETH 1976-02-15 06:00:00 TS -15.4491 149.915 main 463 448 ______P__O__O_ -1 -15.4474 149.845 20 30 996 -15.4000 149.800 TC 35 997 -15.5000 150.100 TC 35 997 5 308
1976045S17150 1976 17 SP EA BETH 1976-02-15 09:00:00 TS -15.3115 149.722 main 448 438 ______P__P__P_ -1 -15.2921 149.644 20 33 996 -15.3000 149.608 TC 35 996 -15.3425 149.915 TC 35 996 5 304
1976045S17150 1976 17 SP EA BETH 1976-02-15 11:00:00 TS -15.2269 149.580 35 996 bom main 443 434 ______O__P__P_ -1 -15.2000 149.500 30 35 996 3.00000 -15.2364 149.469 TC 35 996 -15.2443 149.772 TC 35 996 49 49 6 300
1976045S17150 1976 17 SP EA BETH 1976-02-15 12:00:00 TS -15.1742 149.473 main 434 408 ______P_OO__O_ -1 -15.1662 149.439 30 35 995 -15.0000 149.000 40 990 -15.2000 149.400 TC 35 996 -15.2000 149.700 TC 35 996 6 293
1976045S17150 1976 17 SP EA BETH 1976-02-15 15:00:00 TS -15.0769 149.212 main 408 388 ______P_PP__P_ -1 -15.0770 149.249 30 35 994 -15.0393 148.539 40 990 -15.0650 149.208 TC 37 995 -15.1074 149.515 TC 37 995 6 290
1976045S17150 1976 17 SP EA BETH 1976-02-15 17:00:00 TS -15.0116 149.001 35 994 bom main 388 377 ______O_PP__P_ -1 -15.0000 149.100 30 35 994 3.00000 -15.0574 148.273 40 990 -14.9583 149.072 TC 39 994 -15.0421 149.378 TC 39 994 49 49 7 287
1976045S17150 1976 17 SP EA BETH 1976-02-15 18:00:00 TS -14.9781 148.866 main 377 346 ______P_PO__O_ -1 -14.9500 149.001 30 35 994 -15.0623 148.162 40 990 -14.9000 149.000 TC 40 994 -15.0000 149.300 TC 40 994 7 293
1976045S17150 1976 17 SP EA BETH 1976-02-15 21:00:00 TS -14.8417 148.586 main 348 337 ______P_PP__P_ -1 -14.7601 148.679 30 35 994 -15.0542 147.954 40 990 -14.7226 148.727 TC 40 994 -14.8301 148.985 TC 40 994 6 302
1976045S17150 1976 17 SP EA BETH 1976-02-15 23:00:00 TS -14.7221 148.449 35 994 bom main 329 329 ______O_PP__P_ -1 -14.6000 148.500 30 35 994 3.00000 -15.0241 147.951 40 990 -14.5807 148.563 TC 40 994 -14.6834 148.782 TC 40 994 49 49 5 318
1976045S17150 1976 17 SP EA BETH 1976-02-16 00:00:00 TS -14.6509 148.407 main 329 329 ______P_OO__O_ -1 -14.5035 148.428 30 35 993 -15.0000 148.000 40 990 -14.5000 148.500 TC 40 994 -14.6000 148.700 TC 40 994 5 350
1976045S17150 1976 17 SP EA BETH 1976-02-16 03:00:00 TS -14.3872 148.388 main 337 337 ______P_PP__P_ -1 -14.1871 148.298 30 38 992 -14.8919 148.346 43 987 -14.1774 148.383 TC 42 993 -14.2924 148.525 TC 42 993 5 8
1976045S17150 1976 17 SP EA BETH 1976-02-16 05:00:00 TS -14.2163 148.465 40 992 bom main 355 355 ______O_PP__P_ -1 -14.0000 148.300 30 40 992 3.00000 -14.8004 148.695 46 985 -13.9767 148.378 TC 44 992 -14.0881 148.489 TC 44 992 55 55 6 29
1976045S17150 1976 17 SP EA BETH 1976-02-16 06:00:00 TS -14.1423 148.529 main 359 359 ______P_PO__O_ -1 -13.9171 148.327 30 40 991 -14.7521 148.889 47 985 -13.9000 148.400 TC 45 992 -14.0000 148.500 TC 45 992 6 54
1976045S17150 1976 17 SP EA BETH 1976-02-16 09:00:00 TS -13.9780 148.798 main 393 381 ______P_PP__P_ -1 -13.7363 148.518 30 40 990 -14.6109 149.487 51 982 -13.7825 148.548 TC 45 991 -13.7825 148.640 TC 45 991 6 66
1976045S17150 1976 17 SP EA BETH 1976-02-16 11:00:00 TS -13.9300 149.016 40 990 bom main 381 374 ______O_PP__P_ -1 -13.7000 148.700 30 40 990 3.00000 -14.5316 149.847 53 980 -13.7807 148.709 TC 45 990 -13.7079 148.806 TC 45 990 55 55 8 81
1976045S17150 1976 17 SP EA BETH 1976-02-16 12:00:00 TS -13.9146 149.208 main 374 368 O_____P_OO__O_ jtwc_sh SH151976 -13.8000 149.900 -1 -13.7157 148.786 30 40 989 -14.5000 150.000 55 980 -13.8000 148.800 TC 45 990 -13.7000 148.900 TC 45 990 7 104
1976045S17150 1976 17 SP EA BETH 1976-02-16 15:00:00 TS -14.0415 149.484 main 377 377 P_____P_PP__P_ SH151976 -14.1725 149.938 -1 -13.8674 149.081 30 43 988 -14.4425 150.151 55 980 -13.9200 149.070 TC 47 989 -13.8050 149.177 TC 47 989 6 121
1976045S17150 1976 17 SP EA BETH 1976-02-16 17:00:00 TS -14.1813 149.674 45 988 bom main 395 394 P_____O_PP__P_ SH151976 -14.3987 150.024 -1 -14.0000 149.300 30 45 988 3.00000 -14.4253 150.196 55 980 -14.0395 149.283 TC 49 988 -13.9342 149.389 TC 49 989 64 64 7 127
1976045S17150 1976 17 SP EA BETH 1976-02-16 18:00:00 TS -14.2604 149.786 main 405 404 O_____P_PO__O_ jtwc_sh SH151976 -14.5000 150.100 -1 -14.0392 149.401 30 45 987 -14.4232 150.213 55 980 -14.1000 149.400 TC 50 988 -14.0000 149.500 TC 50 989 7 120
1976045S17150 1976 17 SP EA BETH 1976-02-16 21:00:00 TS -14.4127 150.089 main 414 414 P_____P_PP__P_ SH151976 -14.7447 150.487 -1 -14.1676 149.730 30 48 986 -14.4423 150.292 55 980 -14.2422 149.740 TC 50 987 -14.1347 149.798 TC 50 989 7 114
1976045S17150 1976 17 SP EA BETH 1976-02-16 23:00:00 TS -14.5125 150.371 50 986 bom main 425 425 P_____O_PP__P_ SH151976 -14.8581 150.872 -1 -14.3000 150.000 30 50 986 3.50000 -14.4765 150.410 55 980 -14.3441 150.027 TC 50 986 -14.2384 150.047 TC 50 989 69 69 10 110
1976045S17150 1976 17 SP EA BETH 1976-02-17 00:00:00 TS -14.5797 150.562 main 437 437 O_____P_OOO_O_ jtwc_sh SH151976 -14.9000 151.100 -1 -14.3983 150.141 30 50 985 -14.5000 150.500 55 980 -14.4000 150.200 TC 50 986 -14.9000 151.100 4 -14.3000 150.200 TC 50 989 13 107
1976045S17150 1976 17 SP EA BETH 1976-02-17 02:00:00 TS -14.6931 150.999 50 984 bom main 452 452 P_____O_PPP_P_ SH151976 -14.9517 151.606 -1 -14.6000 150.500 30 50 984 3.50000 -14.5413 150.764 55 980 -14.5308 150.603 TC 51 984 -14.9250 151.698 4 -14.4671 150.564 TC 51 987 69 69 14 104
1976045S17150 1976 17 SP EA BETH 1976-02-17 03:00:00 TS -14.7464 151.266 main 458 458 P_____P_PPP_P_ SH151976 -14.9651 151.890 -1 -14.6786 150.740 30 51 983 -14.5682 150.921 55 980 -14.5999 150.832 TC 52 984 -14.9385 151.996 4 -14.5574 150.775 TC 52 987 16 100
1976045S17150 1976 17 SP EA BETH 1976-02-17 05:00:00 TS -14.8344 151.820 55 982 bom main 483 483 P_____O_PPP_P_ SH151976 -14.9855 152.493 -1 -14.8000 151.300 30 55 982 4.00000 -14.6344 151.284 55 980 -14.7363 151.334 TC 54 982 -14.9704 152.589 4 -14.7284 151.245 TC 54 986 75 75 16 99
1976045S17150 1976 17 SP EA BETH 1976-02-17 06:00:00 TS -14.8723 152.092 main 504 504 O_____P_POP_O_ jtwc_sh SH151976 -15.0000 152.800 -1 -14.8424 151.569 30 55 981 -14.6738 151.489 55 980 -14.8000 151.600 TC 55 982 -14.9901 152.883 4 -14.8000 151.500 TC 55 986 16 97
1976045S17150 1976 17 SP EA BETH 1976-02-17 09:00:00 TS -14.9731 152.926 main 547 547 P_____P_PPP_P_ SH151976 -15.0775 153.715 -1 -14.9255 152.404 30 58 979 -14.8176 152.187 55 980 -14.9422 152.405 TC 57 980 -15.0717 153.754 4 -14.8997 152.298 TC 55 985 17 98
1976045S17150 1976 17 SP EA BETH 1976-02-17 11:00:00 TS -15.0556 153.507 60 978 bom main 588 588 P_____O_PPP_P_ SH151976 -15.1526 154.315 -1 -15.0000 153.000 30 60 978 4.00000 -14.9349 152.717 55 980 -15.0410 152.992 TC 59 978 -15.1510 154.321 4 -14.9572 152.889 TC 55 985 84 84 17 99
1976045S17150 1976 17 SP EA BETH 1976-02-17 12:00:00 TS -15.1091 153.803 main 605 605 O_____P_OOO_O_ jtwc_sh SH151976 -15.2000 154.600 -1 -15.0635 153.319 30 60 977 -15.0000 153.000 55 980 -15.1000 153.300 TC 60 978 -15.2000 154.600 4 -15.0000 153.200 TC 55 985 18 102
1976045S17150 1976 17 SP EA BETH 1976-02-17 15:00:00 TS -15.3114 154.709 main 681 681 P_____P_PPP_P_ SH151976 -15.3697 155.388 -1 -15.3091 154.325 30 63 975 -15.1969 153.985 57 977 -15.3274 154.285 TC 62 976 -15.3871 155.410 4 -15.2199 154.185 TC 60 981 18 104
1976045S17150 1976 17 SP EA BETH 1976-02-17 17:00:00 TS -15.4758 155.312 65 974 bom main 741 741 P_____O_PPP_P_ SH151976 -15.5165 155.869 -1 -15.5000 155.000 40 65 974 4.50000 -15.3482 154.698 59 975 -15.5056 154.965 TC 64 974 -15.5407 155.921 4 -15.4030 154.865 TC 63 979 89 89 18 106
1976045S17150 1976 17 SP EA BETH 1976-02-17 18:00:00 TS -15.5641 155.606 main 771 766 O_____P_POP_O_ jtwc_sh SH151976 -15.6000 156.100 -1 -15.5940 155.322 40 65 973 -15.4296 155.059 60 975 -15.6000 155.300 TC 65 974 -15.6247 156.164 4 -15.5000 155.200 TC 65 978 18 109
1976045S17150 1976 17 SP EA BETH 1976-02-17 21:00:00 TS -15.8493 156.463 main 761 757 P_____P_PPP_P_ SH151976 -15.8850 156.802 -1 -15.8941 156.272 40 68 972 -15.6970 156.104 62 972 -15.8921 156.265 TC 67 973 -15.9000 156.836 4 -15.7920 156.158 TC 67 976 17 110
1976045S17150 1976 17 SP EA BETH 1976-02-17 23:00:00 TS -16.0538 156.995 70 972 bom main 767 759 P_____O_PPP_P_ SH151976 -16.0947 157.217 -1 -16.1000 156.900 40 70 972 4.50000 -15.8949 156.725 64 970 -16.0972 156.892 TC 69 972 -16.0980 157.225 4 -15.9971 156.786 TC 69 975 99 99 16 112
1976045S17150 1976 17 SP EA BETH 1976-02-18 00:00:00 TS -16.1568 157.248 main 769 755 O_____P_OOO_O_ jtwc_sh SH151976 -16.2000 157.400 -1 -16.1974 157.235 40 70 972 -16.0000 157.000 65 970 -16.2000 157.200 TC 70 972 -16.2000 157.400 4 -16.1000 157.100 TC 70 975 15 113
1976045S17150 1976 17 SP EA BETH 1976-02-18 03:00:00 TS -16.4545 157.955 main 758 729 P_____P_PPP_P_ SH151976 -16.4923 157.860 -1 -16.4923 158.222 40 70 972 -16.3284 157.615 66 968 -16.4852 158.168 TC 70 972 -16.4982 157.858 4 -16.3927 158.103 TC 70 974 14 115
1976045S17150 1976 17 SP EA BETH 1976-02-18 05:00:00 TS -16.6643 158.357 70 972 bom main 714 699 P_____O_PPP_P_ SH151976 -16.6942 158.097 -1 -16.7000 158.800 40 70 972 4.50000 4 -16.5688 157.932 67 967 -16.6887 158.748 TC 70 972 -16.7097 158.101 4 -16.5944 158.723 TC 70 973 99 99 13 120
1976045S17150 1976 17 SP EA BETH 1976-02-18 06:00:00 TS -16.7737 158.535 main 699 636 O_____P_POP_O_ jtwc_sh SH151976 -16.8000 158.200 -1 -16.8029 159.071 40 70 972 -16.6945 158.068 67 967 -16.8000 159.000 TC 70 972 -16.8186 158.208 4 -16.7000 159.000 TC 70 973 12 127
1976045S17150 1976 17 SP EA BETH 1976-02-18 09:00:00 TS -17.1232 158.996 main 636 600 P_____P_PPP_P_ SH151976 -17.1424 158.480 -1 -17.1374 159.733 40 70 972 -17.0885 158.412 68 966 -17.1772 159.642 TC 70 972 -17.1548 158.479 4 -17.0198 159.742 TC 70 974 11 133
1976045S17150 1976 17 SP EA BETH 1976-02-18 11:00:00 TS -17.3752 159.215 70 972 bom main 600 585 P_____O_PPP_P_ SH151976 -17.3807 158.630 -1 -17.4000 160.000 40 70 972 4.50000 -17.3616 158.607 69 965 -17.4556 159.917 TC 70 972 -17.3844 158.630 4 -17.2635 160.087 TC 70 974 99 99 10 143
1976045S17150 1976 17 SP EA BETH 1976-02-18 12:00:00 TS -17.5078 159.297 main 585 543 O_____P_OOO_O_ jtwc_sh SH151976 -17.5000 158.700 -1 -17.5546 160.077 40 69 972 -17.5000 158.700 70 965 -17.6000 160.000 TC 70 972 -17.5000 158.700 4 -17.4000 160.200 TC 70 975 9 156
1976045S17150 1976 17 SP EA BETH 1976-02-18 15:00:00 TS -17.9189 159.471 main 543 527 P_____P_PPP_P_ SH151976 -17.8500 158.915 -1 -18.0659 160.089 40 66 974 -17.9145 159.075 70 965 -18.0498 160.040 TC 67 974 -17.8102 158.951 4 -17.8922 160.313 TC 67 976 9 163
1976045S17150 1976 17 SP EA BETH 1976-02-18 17:00:00 TS -18.1968 159.525 65 976 bom main 527 522 P_____O_PPP_P_ SH151976 -18.0833 159.042 -1 -18.4000 160.000 40 65 976 4.50000 -18.1988 159.298 70 965 -18.3530 159.951 TC 65 975 -18.0223 159.092 4 -18.2368 160.249 TC 65 976 89 89 8 171
1976045S17150 1976 17 SP EA BETH 1976-02-18 18:00:00 TS -18.3325 159.546 main 522 494 O_____P_POP_O_ jtwc_sh SH151976 -18.2000 159.100 -1 -18.5526 159.965 40 63 976 -18.3423 159.399 70 965 -18.5000 159.900 TC 65 976 -18.1323 159.155 4 -18.4000 160.200 TC 65 977 8 172
1976045S17150 1976 17 SP EA BETH 1976-02-18 21:00:00 TS -18.7197 159.598 main 494 483 P_____P_PPP_P_ SH151976 -18.5200 159.273 -1 -18.9679 159.809 40 58 977 -18.7740 159.649 70 965 -18.9300 159.808 TC 62 977 -18.4884 159.307 4 -18.8375 160.065 TC 65 978 8 175
1976045S17150 1976 17 SP EA BETH 1976-02-18 23:00:00 TS -18.9730 159.608 55 979 bom main 483 479 P_____O_PPP_P_ SH151976 -18.7605 159.364 -1 -19.2000 159.700 30 55 979 4.00000 -19.0592 159.762 70 965 -19.1864 159.736 TC 60 978 -18.7553 159.376 4 -19.0891 159.952 TC 65 978 75 75 8 0
1976045S17150 1976 17 SP EA BETH 1976-02-19 00:00:00 TS -19.0997 159.608 main 479 468 O_____P_OOO_O_ jtwc_sh SH151976 -18.9000 159.400 -1 -19.2978 159.658 30 55 979 -19.2000 159.800 70 965 -19.3000 159.700 TC 60 979 -18.9000 159.400 4 -19.2000 159.900 TC 65 979 8 0
1976045S17150 1976 17 SP EA BETH 1976-02-19 03:00:00 TS -19.4861 159.611 main 468 464 P_____P_PPP_P_ SH151976 -19.4200 159.487 -1 -19.5417 159.553 30 55 980 -19.5823 159.874 68 966 -19.5575 159.607 TC 60 980 -19.4166 159.481 4 -19.4650 159.785 TC 62 979 8 182
1976045S17150 1976 17 SP EA BETH 1976-02-19 05:00:00 TS -19.7529 159.592 55 981 bom main 462 461 P_____O_PPP_P_ SH151976 -19.8062 159.506 -1 -19.7000 159.500 30 55 981 4.00000 -19.8342 159.865 67 967 -19.7131 159.539 TC 60 980 -19.7922 159.501 4 -19.6188 159.725 TC 60 979 75 75 8 186
1976045S17150 1976 17 SP EA BETH 1976-02-19 06:00:00 TS -19.8895 159.579 main 461 459 O_____P_POP_O_ jtwc_sh SH151976 -20.0000 159.500 -1 -19.7801 159.510 30 55 981 -19.9617 159.844 67 967 -19.8000 159.500 TC 60 981 -19.9845 159.499 4 -19.7000 159.700 TC 60 980 8 187
1976045S17150 1976 17 SP EA BETH 1976-02-19 09:00:00 TS -20.3057 159.521 main 469 469 P_____P_PPP_P_ SH151976 -20.5724 159.445 -1 -20.0520 159.525 30 55 982 -20.3604 159.717 66 968 -20.0824 159.387 TC 57 982 -20.5602 159.443 4 -19.9399 159.687 TC 60 980 9 191
1976045S17150 1976 17 SP EA BETH 1976-02-19 11:00:00 TS -20.6053 159.426 55 983 bom main 480 480 P_____O_PPP_P_ SH151976 -20.9338 159.358 -1 -20.3000 159.400 30 55 983 4.00000 -20.6476 159.582 65 969 -20.3381 159.275 TC 55 982 -20.9268 159.358 4 -20.1573 159.648 TC 60 980 75 75 10 199
1976045S17150 1976 17 SP EA BETH 1976-02-19 12:00:00 TS -20.7626 159.348 main 492 492 O_____P_OOO_O_ jtwc_sh SH151976 -21.1000 159.300 -1 -20.4381 159.238 30 55 983 -20.8000 159.500 65 970 -20.5000 159.200 TC 55 983 -21.1000 159.300 4 -20.3000 159.600 TC 60 980 11 205
1976045S17150 1976 17 SP EA BETH 1976-02-19 14:00:00 TS -21.1064 159.172 55 984 bom main 507 507 P_____O_PPP_P_ SH151976 -21.3903 159.173 -1 -20.8000 158.900 30 55 984 4.00000 -21.1639 159.333 63 971 -20.9221 159.020 TC 55 983 -21.4113 159.168 4 -20.6671 159.436 TC 60 980 75 75 12 205
1976045S17150 1976 17 SP EA BETH 1976-02-19 15:00:00 TS -21.2925 159.081 main 521 521 P_____P_PPP_P_ SH151976 -21.5224 159.095 -1 -21.0432 158.820 30 55 984 -21.3556 159.233 62 972 -21.1624 158.910 TC 55 984 -21.5592 159.086 4 -20.8824 159.325 TC 60 981 13 206
1976045S17150 1976 17 SP EA BETH 1976-02-19 17:00:00 TS -21.6787 158.874 55 985 bom main 551 551 P_____O_PPP_P_ SH151976 -21.7745 158.908 -1 -21.6000 158.700 30 55 985 3.50000 -21.7482 159.006 60 974 -21.6596 158.650 TC 55 984 -21.8407 158.894 4 -21.3535 159.055 TC 60 981 75 75 13 208
1976045S17150 1976 17 SP EA BETH 1976-02-19 18:00:00 TS -21.8724 158.747 main 578 575 O_____P_POP_O_ jtwc_sh SH151976 -21.9000 158.800 -1 -21.8874 158.568 30 55 985 -21.9449 158.880 60 975 -21.9000 158.500 TC 55 985 -21.9747 158.785 4 -21.6000 158.900 TC 60 982 14 214
1976045S17150 1976 17 SP EA BETH 1976-02-19 21:00:00 TS -22.4613 158.295 main 570 527 P_____P_PPP_P_ SH151976 -22.3075 158.430 -1 -22.7114 158.005 30 55 986 -22.5118 158.461 57 977 -22.5978 157.958 TC 52 986 -22.3529 158.417 4 -22.4402 158.366 TC 57 983 14 218
1976045S17150 1976 17 SP EA BETH 1976-02-19 23:00:00 TS -22.7964 157.965 55 987 bom main 527 504 P_____O_PPP_P_ SH151976 -22.5724 158.147 -1 -23.1000 157.600 30 55 987 3.50000 -22.8494 158.157 55 979 -22.9682 157.577 TC 50 986 -22.5873 158.143 4 -22.9248 157.983 TC 55 984 75 75 13 224
1976045S17150 1976 17 SP EA BETH 1976-02-20 00:00:00 TS -22.9281 157.805 main 504 452 O_____P_OOO_O_ jtwc_sh SH151976 -22.7000 158.000 -1 -23.1965 157.435 30 54 987 -23.0000 158.000 55 980 -23.1000 157.400 TC 50 987 -22.7000 158.000 4 -23.1000 157.800 TC 55 985 10 235
1976045S17150 1976 17 SP EA BETH 1976-02-20 03:00:00 TS -23.1886 157.363 main 452 420 P_____P_PPP_P_ SH151976 -23.0724 157.565 -1 -23.2425 156.980 30 51 988 -23.3845 157.556 51 982 -23.2321 156.984 TC 50 988 -23.0614 157.564 4 -23.2548 157.326 TC 55 985 9 241
1976045S17150 1976 17 SP EA BETH 1976-02-20 05:00:00 TS -23.3003 157.068 50 989 bom main 420 401 P_____O_PPP_P_ SH151976 -23.2973 157.258 -1 -23.2000 156.700 30 50 989 3.00000 -23.5908 157.240 48 984 -23.2120 156.731 TC 50 988 -23.2850 157.250 4 -23.2200 157.039 TC 55 985 69 69 9 248
1976045S17150 1976 17 SP EA BETH 1976-02-20 06:00:00 TS -23.3548 156.918 main 397 355 O_____P_POP_O_ jtwc_sh SH151976 -23.4000 157.100 -1 -23.2139 156.564 30 50 989 -23.6791 157.075 47 985 -23.2000 156.600 TC 50 989 -23.3902 157.088 4 -23.2000 156.900 TC 55 985 9 249
1976045S17150 1976 17 SP EA BETH 1976-02-20 09:00:00 TS -23.5231 156.453 main 355 323 P_____P_PPP_P_ SH151976 -23.6800 156.600 -1 -23.2586 156.169 30 50 990 -23.8842 156.557 43 987 -23.2425 156.150 TC 47 990 -23.6739 156.593 4 -23.2423 156.500 TC 52 987 9 250
1976045S17150 1976 17 SP EA BETH 1976-02-20 11:00:00 TS -23.6178 156.138 50 991 bom main 313 299 P_____O_PPP_P_ SH151976 -23.8333 156.264 -1 -23.3000 155.900 30 50 991 2.50000 -23.9713 156.190 41 989 -23.2776 155.847 TC 45 990 -23.8318 156.263 4 -23.2775 156.236 TC 50 988 69 69 9 252
1976045S17150 1976 17 SP EA BETH 1976-02-20 12:00:00 TS -23.6611 155.979 main 299 249 O_____P_OOO_O_ jtwc_sh SH151976 -23.9000 156.100 -1 -23.3276 155.750 30 50 991 -24.0000 156.000 40 990 -23.3000 155.700 TC 45 991 -23.9000 156.100 4 -23.3000 156.100 TC 50 989 9 255
1976045S17150 1976 17 SP EA BETH 1976-02-20 15:00:00 TS -23.7811 155.492 main 249 222 P_____P_PPP_P_ SH151976 -24.0798 155.642 -1 -23.4279 155.290 30 50 991 -24.0217 155.328 43 987 -23.3924 155.285 TC 45 991 -24.0737 155.614 4 -23.3926 155.643 TC 47 990 9 256
1976045S17150 1976 17 SP EA BETH 1976-02-20 17:00:00 TS -23.8438 155.174 50 992 bom main 222 199 P_____O_PPP_P_ SH151976 -24.1666 155.347 -1 -23.5000 155.000 30 50 992 2.50000 -23.9882 154.863 46 985 -23.4640 155.025 TC 45 991 -24.1569 155.295 4 -23.4641 155.341 TC 45 991 69 69 9 258
1976045S17150 1976 17 SP EA BETH 1976-02-20 18:00:00 TS -23.8698 155.020 main 199 165 O_____P_POP_O_ jtwc_sh SH151976 -24.2000 155.200 -1 -23.5359 154.867 30 50 992 -23.9624 154.635 47 985 -23.5000 154.900 TC 45 992 -24.1901 155.139 4 -23.5000 155.200 TC 45 992 8 261
1976045S17150 1976 17 SP EA BETH 1976-02-20 21:00:00 TS -23.9334 154.572 main 165 135 P_____P_PPP_P_ SH151976 -24.2725 154.727 -1 -23.6412 154.507 30 50 992 -23.8717 154.000 51 982 -23.6075 154.528 TC 45 992 -24.2614 154.695 4 -23.6074 154.820 TC 45 992 8 262
1976045S17150 1976 17 SP EA BETH 1976-02-20 23:00:00 TS -23.9631 154.306 50 992 bom main 135 127 P_____O_PPP_P_ SH151976 -24.2943 154.433 -1 -23.7000 154.300 30 50 992 2.00000 -23.8186 153.647 53 980 -23.6724 154.303 TC 45 992 -24.2900 154.425 4 -23.6723 154.600 TC 45 992 69 69 7 263
1976045S17150 1976 17 SP EA BETH 1976-02-21 00:00:00 TS -23.9746 154.186 main 127 108 O_____P_OOO_O_ jtwc_sh SH151976 -24.3000 154.300 -1 -23.7223 154.205 30 50 992 -23.8000 153.500 55 980 -23.7000 154.200 TC 45 992 -24.3000 154.300 4 -23.7000 154.500 TC 45 992 6 264
1976045S17150 1976 17 SP EA BETH 1976-02-21 03:00:00 TS -24.0047 153.901 main 108 102 P_____P_PPP_P_ SH151976 -24.3073 153.970 -1 -23.7720 153.956 30 50 992 -23.8073 153.252 51 982 -23.7499 153.935 TC 42 992 -24.3319 153.986 4 -23.7574 154.235 TC 42 992 5 264
1976045S17150 1976 17 SP EA BETH 1976-02-21 05:00:00 TS -24.0197 153.743 50 993 bom main 98 98 P_____O_PPP_P_ SH151976 -24.3025 153.786 -1 -23.8000 153.800 30 50 993 2.00000 -23.8296 153.166 48 984 -23.7802 153.778 TC 40 992 -24.3373 153.805 4 -23.7859 154.078 TC 40 992 69 69 4 264
1976045S17150 1976 17 SP EA BETH 1976-02-21 06:00:00 TS -24.0276 153.667 main 98 80 O_____P_POP_O_ jtwc_sh SH151976 -24.3000 153.700 -1 -23.8114 153.714 30 50 993 -23.8455 153.138 47 985 -23.8000 153.700 TC 40 993 -24.3363 153.720 4 -23.8000 154.000 TC 40 993 4 262
1976045S17150 1976 17 SP EA BETH 1976-02-21 09:00:00 TS -24.0577 153.444 main 78 78 P_____P_PPP_P_ SH151976 -24.2998 153.458 -1 -23.8509 153.459 30 50 993 -23.9110 153.080 43 987 -23.8850 153.442 TC 40 993 -24.3226 153.468 4 -23.8350 153.742 TC 40 993 4 260
1976045S17150 1976 17 SP EA BETH 1976-02-21 11:00:00 TS -24.0866 153.295 50 994 bom main 78 78 P_____O_PPP_P_ SH151976 -24.2999 153.292 -1 -23.9000 153.300 30 50 994 2.00000 -23.9679 153.034 41 989 -23.9583 153.278 TC 40 993 -24.3080 153.293 4 -23.8719 153.578 TC 40 993 69 69 4 257
1976045S17150 1976 17 SP EA BETH 1976-02-21 12:00:00 TS -24.1040 153.219 main 78 67 O_____P_OOO_O_ jtwc_sh SH151976 -24.3000 153.200 -1 -23.9283 153.235 30 51 994 -24.0000 153.000 40 990 -24.0000 153.200 TC 40 994 -24.3000 153.200 4 -23.9000 153.500 TC 40 994 5 253
1976045S17150 1976 17 SP EA BETH 1976-02-21 15:00:00 TS -24.1754 152.978 main 67 67 P_____P_PPP_P_ SH151976 -24.3075 152.865 -1 -24.0582 153.050 30 56 994 -24.1085 152.838 40 990 -24.1273 153.022 TC 40 994 -24.3063 152.888 4 -24.0123 153.315 TC 40 994 5 251
1976045S17150 1976 17 SP EA BETH 1976-02-21 17:00:00 TS -24.2385 152.795 60 994 bom main 73 63 P_____O_PPP_P_ SH151976 -24.3057 152.622 -1 -24.2000 152.900 30 60 994 2.00000 -24.1891 152.687 40 990 -24.2358 152.887 TC 40 994 -24.3055 152.668 4 -24.1275 153.181 TC 40 994 84 84 6 249
1976045S17150 1976 17 SP EA BETH 1976-02-21 18:00:00 TS -24.2751 152.695 main 63 45 O_____P_POP_O_ jtwc_sh SH151976 -24.3000 152.500 -1 -24.2923 152.811 30 60 994 -24.2314 152.601 40 990 -24.3000 152.800 TC 40 994 -24.3020 152.553 4 -24.2000 153.100 TC 40 994 6 247
1976045S17150 1976 17 SP EA BETH 1976-02-21 20:00:00 TS -24.3596 152.479 60 994 bom main 45 37 P_____O_PPP_P_ SH151976 -24.2799 152.272 -1 -24.5000 152.600 30 60 994 2.00000 -24.3188 152.413 40 990 -24.4497 152.576 TC 38 994 -24.2857 152.315 4 -24.4034 152.902 TC 38 994 84 84 7 248
1976045S17150 1976 17 SP EA BETH 1976-02-21 21:00:00 TS -24.3996 152.360 main 37 10 P_____P_PPP_P_ SH151976 -24.2649 152.158 -1 -24.6088 152.477 30 55 994 -24.3636 152.313 40 990 -24.5329 152.443 TC 37 995 -24.2717 152.192 4 -24.5149 152.788 TC 37 995 7 253
1976045S17150 1976 17 SP EA BETH 1976-02-21 23:00:00 TS -24.4636 152.107 45 996 bom main 10 0 P_____O_PPP_P_ SH151976 -24.2249 151.922 -1 -24.8000 152.200 30 45 996 -24.4544 152.106 40 990 -24.7094 152.152 TC 35 995 -24.2295 151.934 4 -24.7206 152.536 TC 35 995 64 64 7 262
1976045S17150 1976 17 SP EA BETH 1976-02-22 00:00:00 TS -24.4516 151.970 main 0 0 O_____P_OOO_O_ jtwc_sh SH151976 -24.2000 151.800 -1 -24.8610 152.054 30 41 997 -24.5000 152.000 40 990 -24.8000 152.000 TC 35 996 -24.2000 151.800 4 -24.8000 152.400 TC 35 996 8 282
1976045S17150 1976 17 SP EA BETH 1976-02-22 03:00:00 TS -24.3472 151.529 main 0 0 P_____P___P_P_ SH151976 -24.1298 151.423 -1 -24.9185 151.605 30 31 1001 TC -24.0761 151.377 4 -24.9078 151.962 TC 30 1000 9 290
1976045S17150 1976 17 SP EA BETH 1976-02-22 05:00:00 TS -24.2010 151.208 25 1004 bom main 0 0 P_____O___P_P_ SH151976 -24.0530 151.148 -1 -24.9000 151.300 20 25 1004 TC -23.9685 151.082 4 -24.9084 151.655 TC 26 1002 45 45 11 302
1976045S17150 1976 17 SP EA BETH 1976-02-22 06:00:00 TS -24.0626 151.029 main 0 0 O_________P_O_ jtwc_sh SH151976 -24.0000 151.000 -1 20 -23.9088 150.931 4 -24.9000 151.500 TC 25 1004 12 305
1976045S17150 1976 17 SP EA BETH 1976-02-22 09:00:00 TS -23.7560 150.501 main 0 0 P_________P___ SH151976 -23.7779 150.517 -1 20 -23.7121 150.469 4 TC 11 301
1976045S17150 1976 17 SP EA BETH 1976-02-22 12:00:00 TS -23.5000 150.000 main 0 O_________O___ jtwc_sh SH151976 -23.5000 150.000 -1 -23.5000 150.000 6 11 299

Digital Typhoon Data and Search

About IBTrACS Database

This database is a web-friendly format of International Best Track Archive for Climate Stewardship (IBTrACS), a global best track data archive curated by NOAA dating back to 1842.

Updated: 2021-10-08